Terminal Aerodrome Forecast
Issued by NWS

Current Version | Previous Version | Graphics & Text | Print | Product List | Glossary On
Versions: 1 2 3 4 5 6 7 8 9 10 11 12 13 14 15 16 17 18 19 20
000
FTUS41 KILN 201727
TAFLUK
TAF
KLUK 201727Z 2018/2118 22011G17KT P6SM BKN120
     FM202100 22008KT P6SM OVC026
     FM210000 21007KT P6SM OVC015
     FM210200 20005KT 5SM BR VCSH OVC009
     FM211200 19007KT 5SM BR OVC012
     FM211500 19010KT P6SM OVC018=

USA.gov is the U.S. government's official web portal to all federal, state and local government web resources and services.